Time;durP1;ratioP1;P1;durP2;ratioP2;P2;SDS_P1;SDS_P2;PMS_P1;PMS_P2;Temp;Humidity;BMP_temperature;BMP_pressure;BME280_temperature;BME280_humidity;BME280_pressure;Samples;Min_cycle;Max_cycle;Signal;HPM_P1;HPM_P2
2022/12/03 00:00:12;;;;;;;14.83;9.70;;;;;;;;;;5080172;28;20209;-70
2022/12/03 00:02:40;;;;;;;13.40;8.67;;;;;;;;;;5094092;28;20210;-71
2022/12/03 00:05:08;;;;;;;18.27;10.73;;;;;;;;;;5101446;28;20251;-70
2022/12/03 00:07:36;;;;;;;16.63;10.10;;;;;;;;;;5078193;28;20221;-70
2022/12/03 00:10:05;;;;;;;15.37;9.60;;;;;;;;;;5080968;28;20213;-70
2022/12/03 00:12:33;;;;;;;16.47;10.17;;;;;;;;;;5079951;28;20201;-71
2022/12/03 00:15:03;;;;;;;17.77;10.10;;;;;;;;;;5080427;28;20921;-71
2022/12/03 00:17:31;;;;;;;15.97;9.70;;;;;;;;;;5080962;28;20218;-71
2022/12/03 00:19:59;;;;;;;19.30;9.47;;;;;;;;;;5080979;28;20577;-71
2022/12/03 00:22:27;;;;;;;15.67;9.73;;;;;;;;;;5080670;28;20301;-70
2022/12/03 00:24:55;;;;;;;17.13;10.40;;;;;;;;;;5080723;28;20265;-71
2022/12/03 00:27:23;;;;;;;15.67;9.70;;;;;;;;;;5080551;28;20203;-71
2022/12/03 00:29:51;;;;;;;15.63;8.97;;;;;;;;;;5079281;28;20238;-71
2022/12/03 00:32:20;;;;;;;16.30;9.73;;;;;;;;;;5080169;28;20233;-70
2022/12/03 00:34:48;;;;;;;15.30;8.87;;;;;;;;;;5080459;28;20226;-71
2022/12/03 00:37:17;;;;;;;14.20;8.53;;;;;;;;;;5080408;28;20206;-70
2022/12/03 00:39:45;;;;;;;13.77;8.27;;;;;;;;;;5077015;28;20202;-71
2022/12/03 00:42:13;;;;;;;13.30;7.80;;;;;;;;;;5079880;28;20198;-70
2022/12/03 00:44:41;;;;;;;11.20;7.30;;;;;;;;;;5077981;28;20261;-70
2022/12/03 00:47:09;;;;;;;12.47;7.77;;;;;;;;;;5079015;28;20198;-70
2022/12/03 00:49:40;;;;;;;14.33;8.33;;;;;;;;;;5080014;28;20210;-71
2022/12/03 00:52:08;;;;;;;13.10;7.90;;;;;;;;;;5079903;28;20228;-71
2022/12/03 00:54:36;;;;;;;13.37;8.47;;;;;;;;;;5079846;28;20304;-71
2022/12/03 00:57:04;;;;;;;14.53;8.20;;;;;;;;;;5079820;28;20213;-71
2022/12/03 00:59:32;;;;;;;16.07;8.70;;;;;;;;;;5078552;28;20233;-71
2022/12/03 01:02:00;;;;;;;14.47;8.20;;;;;;;;;;5079662;28;20670;-71
2022/12/03 01:04:28;;;;;;;11.53;7.10;;;;;;;;;;5079457;28;20223;-71
2022/12/03 01:06:58;;;;;;;10.30;7.37;;;;;;;;;;5079356;28;20530;-71
2022/12/03 01:09:25;;;;;;;11.60;7.83;;;;;;;;;;5079358;28;20246;-71
2022/12/03 01:11:53;;;;;;;12.43;9.00;;;;;;;;;;5078663;28;20761;-71
2022/12/03 01:14:21;;;;;;;11.80;7.97;;;;;;;;;;5079387;28;20238;-70
2022/12/03 01:16:49;;;;;;;11.73;7.70;;;;;;;;;;5079371;28;20348;-71
2022/12/03 01:19:18;;;;;;;11.77;7.77;;;;;;;;;;5079324;28;20202;-71
2022/12/03 01:21:47;;;;;;;12.03;7.60;;;;;;;;;;5079641;28;20212;-71
2022/12/03 01:24:17;;;;;;;13.27;7.43;;;;;;;;;;5079084;28;20229;-70
2022/12/03 01:26:45;;;;;;;11.87;7.63;;;;;;;;;;5079351;28;20207;-71
2022/12/03 01:29:13;;;;;;;9.67;6.70;;;;;;;;;;5077673;28;20230;-70
2022/12/03 01:34:26;;;;;;;12.33;8.10;;;;;;;;;;5079033;28;20260;-71
2022/12/03 01:36:54;;;;;;;10.97;6.93;;;;;;;;;;5079235;28;20212;-70
2022/12/03 01:39:24;;;;;;;14.80;8.00;;;;;;;;;;5079381;28;20206;-70
2022/12/03 01:41:52;;;;;;;11.27;7.17;;;;;;;;;;5078834;28;20213;-71
2022/12/03 01:44:21;;;;;;;10.63;6.77;;;;;;;;;;5077660;28;20835;-70
2022/12/03 01:46:50;;;;;;;11.77;6.70;;;;;;;;;;5078715;28;20728;-70
2022/12/03 01:49:20;;;;;;;13.33;7.50;;;;;;;;;;5079135;28;20444;-70
2022/12/03 01:51:49;;;;;;;11.07;6.80;;;;;;;;;;5078817;28;20512;-70
2022/12/03 01:54:18;;;;;;;10.57;6.80;;;;;;;;;;5078890;28;20460;-70
2022/12/03 01:56:48;;;;;;;14.93;7.77;;;;;;;;;;5078518;28;20449;-71
2022/12/03 01:59:17;;;;;;;11.63;7.10;;;;;;;;;;5077537;28;20266;-71
2022/12/03 02:01:45;;;;;;;9.90;6.00;;;;;;;;;;5078647;28;20271;-70
2022/12/03 02:04:14;;;;;;;9.77;6.80;;;;;;;;;;5078392;28;20226;-70
2022/12/03 02:06:42;;;;;;;7.97;5.30;;;;;;;;;;5078370;28;20206;-71
2022/12/03 02:09:10;;;;;;;8.10;5.80;;;;;;;;;;5078243;28;20661;-70
2022/12/03 02:11:43;;;;;;;10.50;6.40;;;;;;;;;;5078455;28;20241;-71
2022/12/03 02:14:14;;;;;;;8.33;6.07;;;;;;;;;;5076377;28;20218;-70
2022/12/03 02:16:42;;;;;;;12.50;6.07;;;;;;;;;;5074176;28;20218;-70
2022/12/03 02:19:16;;;;;;;8.67;6.27;;;;;;;;;;5074697;28;20255;-70
2022/12/03 02:21:50;;;;;;;10.67;6.60;;;;;;;;;;5077459;28;20209;-70
2022/12/03 02:24:20;;;;;;;8.60;6.00;;;;;;;;;;5079095;28;20250;-70
2022/12/03 02:26:50;;;;;;;10.53;6.77;;;;;;;;;;5075338;28;20198;-70
2022/12/03 02:29:18;;;;;;;8.70;6.90;;;;;;;;;;5078472;28;20516;-70
2022/12/03 02:31:46;;;;;;;7.03;5.83;;;;;;;;;;5077003;28;20218;-70
2022/12/03 02:34:29;;;;;;;10.10;6.47;;;;;;;;;;5079659;28;20460;-70
2022/12/03 02:36:57;;;;;;;8.83;6.07;;;;;;;;;;5075959;28;20479;-70
2022/12/03 02:39:25;;;;;;;14.63;7.50;;;;;;;;;;5078281;28;20827;-70
2022/12/03 02:44:39;;;;;;;10.87;7.00;;;;;;;;;;5077731;28;20464;-71
2022/12/03 02:47:08;;;;;;;10.23;7.20;;;;;;;;;;5085075;28;20475;-70
2022/12/03 02:49:36;;;;;;;10.73;7.43;;;;;;;;;;5085851;28;20965;-70
2022/12/03 02:52:04;;;;;;;12.23;7.07;;;;;;;;;;5080804;28;20926;-70
2022/12/03 02:54:32;;;;;;;11.43;6.77;;;;;;;;;;5087443;28;20456;-70
2022/12/03 02:57:02;;;;;;;17.27;8.57;;;;;;;;;;5086020;28;20429;-69
2022/12/03 02:59:31;;;;;;;12.47;7.87;;;;;;;;;;5086477;28;20472;-70
2022/12/03 03:02:00;;;;;;;12.20;7.03;;;;;;;;;;5089049;28;20432;-69
2022/12/03 03:04:28;;;;;;;11.43;7.10;;;;;;;;;;5084693;28;20482;-70
2022/12/03 03:06:56;;;;;;;10.40;7.47;;;;;;;;;;5087744;28;20519;-70
2022/12/03 03:09:24;;;;;;;11.60;7.87;;;;;;;;;;5083719;28;20499;-70
2022/12/03 03:11:53;;;;;;;8.73;7.43;;;;;;;;;;5086786;28;20483;-70
2022/12/03 03:14:23;;;;;;;10.17;7.43;;;;;;;;;;5087576;28;20459;-70
2022/12/03 03:16:54;;;;;;;12.13;7.57;;;;;;;;;;5087349;28;20436;-70
2022/12/03 03:19:25;;;;;;;12.03;7.03;;;;;;;;;;5082471;28;20452;-70
2022/12/03 03:21:53;;;;;;;10.80;7.03;;;;;;;;;;5086155;28;21007;-70
2022/12/03 03:24:22;;;;;;;12.40;7.67;;;;;;;;;;5072343;28;20473;-71
2022/12/03 03:26:50;;;;;;;12.97;7.50;;;;;;;;;;5068713;28;20205;-71
2022/12/03 03:29:18;;;;;;;12.20;6.90;;;;;;;;;;5076820;28;20206;-71
2022/12/03 03:31:48;;;;;;;13.70;7.90;;;;;;;;;;5081729;28;20297;-71
2022/12/03 03:34:16;;;;;;;12.60;7.10;;;;;;;;;;5081441;28;20260;-71
2022/12/03 03:36:45;;;;;;;10.83;7.60;;;;;;;;;;5081649;28;20202;-70
2022/12/03 03:39:13;;;;;;;10.80;7.30;;;;;;;;;;5080435;28;20237;-70
2022/12/03 03:41:42;;;;;;;11.00;7.37;;;;;;;;;;5080954;28;20364;-71
2022/12/03 03:44:10;;;;;;;11.43;7.33;;;;;;;;;;5081133;28;20578;-71
2022/12/03 03:46:38;;;;;;;12.13;8.10;;;;;;;;;;5081341;28;20213;-71
2022/12/03 03:49:09;;;;;;;8.67;6.07;;;;;;;;;;5081402;28;20238;-70
2022/12/03 03:51:38;;;;;;;9.50;6.30;;;;;;;;;;5081032;28;20244;-70
2022/12/03 03:54:06;;;;;;;13.57;6.93;;;;;;;;;;5080297;28;20480;-70
2022/12/03 03:56:35;;;;;;;11.23;7.33;;;;;;;;;;5080804;28;20531;-70
2022/12/03 03:59:03;;;;;;;12.53;6.97;;;;;;;;;;5080645;28;20470;-70
2022/12/03 04:01:31;;;;;;;8.77;6.77;;;;;;;;;;5080838;28;20821;-70
2022/12/03 04:04:00;;;;;;;12.27;7.53;;;;;;;;;;5081011;28;20467;-70
2022/12/03 04:06:29;;;;;;;12.67;8.33;;;;;;;;;;5080648;28;20472;-70
2022/12/03 04:08:57;;;;;;;10.97;7.40;;;;;;;;;;5080588;28;20500;-70
2022/12/03 04:14:10;;;;;;;11.90;7.53;;;;;;;;;;5080437;28;20502;-70
2022/12/03 04:16:38;;;;;;;12.80;6.83;;;;;;;;;;5080777;28;20447;-70
2022/12/03 04:19:06;;;;;;;12.17;7.37;;;;;;;;;;5080751;28;20472;-70
2022/12/03 04:24:21;;;;;;;9.87;6.83;;;;;;;;;;5080649;28;20460;-70
2022/12/03 04:29:35;;;;;;;11.43;6.87;;;;;;;;;;5067809;28;20445;-70
2022/12/03 04:37:36;;;;;;;13.50;7.03;;;;;;;;;;5080270;28;20444;-71
2022/12/03 04:40:59;;;;;;;12.43;7.73;;;;;;;;;;5080069;28;20512;-70
2022/12/03 04:42:53;;;;;;;9.20;6.63;;;;;;;;;;5079060;28;20792;-71
2022/12/03 04:45:21;;;;;;;12.20;7.07;;;;;;;;;;5079881;28;20503;-70
2022/12/03 04:47:49;;;;;;;13.20;7.73;;;;;;;;;;5080397;28;20532;-71
2022/12/03 04:50:17;;;;;;;13.63;8.17;;;;;;;;;;5080111;28;20455;-70
2022/12/03 04:52:46;;;;;;;12.67;7.87;;;;;;;;;;5079977;28;20979;-70
2022/12/03 04:55:14;;;;;;;13.33;7.37;;;;;;;;;;5080111;28;20552;-70
2022/12/03 04:57:42;;;;;;;12.67;8.37;;;;;;;;;;5077911;28;20510;-70
2022/12/03 05:00:11;;;;;;;9.90;7.37;;;;;;;;;;5078506;28;20519;-70
2022/12/03 05:02:39;;;;;;;12.07;7.17;;;;;;;;;;5079438;28;20463;-70
2022/12/03 05:05:07;;;;;;;12.10;8.00;;;;;;;;;;5069839;28;20858;-71
2022/12/03 05:07:36;;;;;;;11.57;7.83;;;;;;;;;;5082439;28;20548;-70
2022/12/03 05:10:06;;;;;;;14.53;8.20;;;;;;;;;;5084116;28;20930;-71
2022/12/03 05:12:34;;;;;;;13.33;8.10;;;;;;;;;;5099941;28;20210;-71
2022/12/03 05:15:02;;;;;;;12.37;7.33;;;;;;;;;;5095208;28;20464;-71
2022/12/03 05:17:30;;;;;;;14.20;8.30;;;;;;;;;;5079015;28;20441;-70
2022/12/03 05:22:44;;;;;;;17.37;9.70;;;;;;;;;;5067783;28;20445;-70
2022/12/03 05:25:13;;;;;;;13.97;8.43;;;;;;;;;;5080152;28;20464;-70
2022/12/03 05:27:41;;;;;;;14.20;8.27;;;;;;;;;;5072406;28;20460;-71
2022/12/03 05:30:10;;;;;;;12.90;7.60;;;;;;;;;;5077302;28;20524;-70
2022/12/03 05:32:38;;;;;;;12.73;8.23;;;;;;;;;;5079047;28;20528;-70
2022/12/03 05:35:07;;;;;;;14.73;9.37;;;;;;;;;;5089261;28;20513;-70
2022/12/03 05:37:35;;;;;;;14.37;8.70;;;;;;;;;;5081507;28;20452;-70
2022/12/03 05:40:03;;;;;;;15.97;9.30;;;;;;;;;;5077524;28;20467;-70
2022/12/03 05:45:18;;;;;;;13.77;8.27;;;;;;;;;;5075728;28;20472;-70
2022/12/03 05:47:46;;;;;;;16.13;9.23;;;;;;;;;;5079810;28;20440;-70
2022/12/03 05:50:14;;;;;;;12.30;8.93;;;;;;;;;;5075433;28;20515;-70
2022/12/03 05:52:43;;;;;;;18.10;9.50;;;;;;;;;;5079119;28;20447;-69
2022/12/03 05:55:11;;;;;;;15.33;9.27;;;;;;;;;;5079648;28;20473;-69
2022/12/03 05:57:41;;;;;;;14.20;8.73;;;;;;;;;;5078174;28;20520;-70
2022/12/03 06:00:13;;;;;;;14.60;9.13;;;;;;;;;;5077578;28;20464;-70
2022/12/03 06:02:41;;;;;;;16.90;9.23;;;;;;;;;;5079192;28;20512;-70
2022/12/03 06:05:10;;;;;;;13.23;8.60;;;;;;;;;;5075593;28;20813;-70
2022/12/03 06:07:39;;;;;;;12.27;8.70;;;;;;;;;;5077975;28;20436;-69
2022/12/03 06:10:08;;;;;;;14.10;9.27;;;;;;;;;;5077810;28;20476;-70
2022/12/03 06:12:36;;;;;;;15.23;8.60;;;;;;;;;;5073445;28;20448;-70
2022/12/03 06:15:07;;;;;;;16.20;9.30;;;;;;;;;;5092377;28;20483;-70
2022/12/03 06:17:36;;;;;;;17.77;8.67;;;;;;;;;;5087028;28;20460;-71
2022/12/03 06:20:05;;;;;;;12.83;8.80;;;;;;;;;;5078290;28;20476;-70
2022/12/03 06:22:33;;;;;;;14.77;8.63;;;;;;;;;;5078330;28;20468;-70
2022/12/03 06:25:01;;;;;;;14.27;8.80;;;;;;;;;;5078138;28;20468;-70
2022/12/03 06:27:34;;;;;;;15.30;9.70;;;;;;;;;;5076955;28;20997;-70
2022/12/03 06:30:02;;;;;;;14.27;8.70;;;;;;;;;;5077964;28;20448;-70
2022/12/03 06:32:31;;;;;;;19.10;9.20;;;;;;;;;;5078111;28;20468;-70
2022/12/03 06:34:59;;;;;;;13.83;8.90;;;;;;;;;;5077804;28;20484;-70
2022/12/03 06:37:27;;;;;;;16.73;9.30;;;;;;;;;;5078229;28;20444;-70
2022/12/03 06:39:55;;;;;;;14.90;8.87;;;;;;;;;;5080004;28;20468;-70
2022/12/03 06:42:23;;;;;;;13.60;8.20;;;;;;;;;;5077690;28;20531;-70
2022/12/03 06:44:51;;;;;;;13.13;8.63;;;;;;;;;;5077642;28;20547;-71
2022/12/03 06:47:20;;;;;;;13.30;8.43;;;;;;;;;;5077898;28;20444;-70
2022/12/03 06:49:49;;;;;;;15.43;9.23;;;;;;;;;;5077483;28;20441;-67
2022/12/03 06:52:17;;;;;;;17.83;9.73;;;;;;;;;;5077647;28;20440;-66
2022/12/03 06:54:45;;;;;;;18.00;9.97;;;;;;;;;;5074497;28;20512;-66
2022/12/03 06:57:13;;;;;;;15.43;8.80;;;;;;;;;;5079022;28;20971;-66
2022/12/03 06:59:41;;;;;;;15.03;9.43;;;;;;;;;;5085209;28;20436;-66
2022/12/03 07:02:09;;;;;;;16.70;9.13;;;;;;;;;;5076318;28;20972;-66
2022/12/03 07:04:38;;;;;;;14.73;8.43;;;;;;;;;;5075675;28;20476;-65
2022/12/03 07:07:14;;;;;;;19.67;9.67;;;;;;;;;;5077493;28;20436;-65
2022/12/03 07:09:42;;;;;;;13.53;9.30;;;;;;;;;;5078124;28;20508;-65
2022/12/03 07:12:10;;;;;;;14.33;9.37;;;;;;;;;;5078776;28;20520;-65
2022/12/03 07:14:38;;;;;;;14.63;10.30;;;;;;;;;;5076441;28;20843;-65
2022/12/03 07:17:06;;;;;;;17.77;9.97;;;;;;;;;;5076974;28;20842;-65
2022/12/03 07:19:34;;;;;;;13.33;8.87;;;;;;;;;;5077985;28;20448;-65
2022/12/03 07:22:02;;;;;;;15.60;9.20;;;;;;;;;;5077732;28;20451;-65
2022/12/03 07:24:31;;;;;;;16.37;9.30;;;;;;;;;;5077212;28;20498;-65
2022/12/03 07:26:59;;;;;;;14.03;8.97;;;;;;;;;;5077724;28;20448;-66
2022/12/03 07:29:27;;;;;;;12.10;8.23;;;;;;;;;;5075608;28;20479;-66
2022/12/03 07:31:55;;;;;;;15.07;9.07;;;;;;;;;;5074691;28;20439;-66
2022/12/03 07:34:23;;;;;;;14.63;9.43;;;;;;;;;;5078206;28;20571;-67
2022/12/03 07:36:51;;;;;;;14.67;9.07;;;;;;;;;;5077767;28;20440;-67
2022/12/03 07:39:19;;;;;;;12.87;8.47;;;;;;;;;;5077480;28;20531;-66
2022/12/03 07:41:49;;;;;;;13.23;8.53;;;;;;;;;;5085264;28;20439;-66
2022/12/03 07:44:17;;;;;;;18.00;10.53;;;;;;;;;;5068452;28;20481;-66
2022/12/03 07:46:44;;;;;;;21.00;10.67;;;;;;;;;;5077002;28;20453;-66
2022/12/03 07:49:12;;;;;;;16.00;9.70;;;;;;;;;;5077378;28;20444;-66
2022/12/03 07:51:41;;;;;;;17.20;10.53;;;;;;;;;;5076426;28;20444;-66
2022/12/03 07:54:09;;;;;;;21.97;10.30;;;;;;;;;;5066195;28;21011;-66
2022/12/03 07:56:37;;;;;;;18.27;10.57;;;;;;;;;;5077029;28;20570;-66
2022/12/03 07:59:07;;;;;;;14.67;9.73;;;;;;;;;;5075608;28;20502;-66
2022/12/03 08:01:35;;;;;;;16.03;8.87;;;;;;;;;;5076986;28;20444;-67
2022/12/03 08:04:03;;;;;;;14.23;8.47;;;;;;;;;;5072387;28;20480;-66
2022/12/03 08:06:31;;;;;;;14.70;8.73;;;;;;;;;;5068962;28;20472;-66
2022/12/03 08:08:59;;;;;;;16.63;9.13;;;;;;;;;;5097247;28;20477;-66
2022/12/03 08:11:28;;;;;;;16.47;9.10;;;;;;;;;;5097210;28;20471;-66
2022/12/03 08:13:56;;;;;;;14.50;8.43;;;;;;;;;;5096955;28;20460;-66
2022/12/03 08:16:25;;;;;;;14.90;8.20;;;;;;;;;;5097323;28;20450;-66
2022/12/03 08:18:56;;;;;;;18.20;9.37;;;;;;;;;;5078963;28;20460;-66
2022/12/03 08:21:24;;;;;;;15.53;9.33;;;;;;;;;;5079678;28;20253;-66
2022/12/03 08:23:52;;;;;;;15.43;9.30;;;;;;;;;;5084419;28;20285;-66
2022/12/03 08:26:21;;;;;;;17.47;10.23;;;;;;;;;;5075998;28;20217;-67
2022/12/03 08:28:49;;;;;;;17.87;9.73;;;;;;;;;;5080462;28;20351;-66
2022/12/03 08:31:19;;;;;;;16.70;9.47;;;;;;;;;;5080661;28;20210;-66
2022/12/03 08:33:49;;;;;;;17.33;10.17;;;;;;;;;;5080411;28;20464;-66
2022/12/03 08:36:20;;;;;;;18.47;9.93;;;;;;;;;;5080629;28;20236;-66
2022/12/03 08:38:49;;;;;;;18.30;9.53;;;;;;;;;;5079636;28;20213;-66
2022/12/03 08:42:40;;;;;;;21.00;9.57;;;;;;;;;;5080366;28;20312;-67
2022/12/03 08:44:21;;;;;;;17.20;9.93;;;;;;;;;;5079828;28;20226;-66
2022/12/03 08:46:50;;;;;;;19.93;10.93;;;;;;;;;;5079914;28;20638;-66
2022/12/03 08:49:20;;;;;;;16.70;10.10;;;;;;;;;;5080285;28;20214;-67
2022/12/03 08:51:48;;;;;;;17.43;9.23;;;;;;;;;;5080206;28;20285;-66
2022/12/03 08:54:19;;;;;;;17.07;9.63;;;;;;;;;;5080058;28;20222;-66
2022/12/03 08:56:47;;;;;;;19.57;10.30;;;;;;;;;;5078886;28;20305;-66
2022/12/03 08:59:21;;;;;;;15.10;9.43;;;;;;;;;;5079841;28;20202;-66
2022/12/03 09:01:50;;;;;;;15.07;9.23;;;;;;;;;;5076886;28;20230;-66
2022/12/03 09:04:26;;;;;;;16.00;9.63;;;;;;;;;;5071735;28;20727;-66
2022/12/03 09:06:55;;;;;;;12.30;7.80;;;;;;;;;;5079952;28;20206;-66
2022/12/03 09:09:23;;;;;;;16.10;9.13;;;;;;;;;;5079416;28;20839;-66
2022/12/03 09:11:51;;;;;;;22.67;10.57;;;;;;;;;;5079430;28;20876;-66
2022/12/03 09:14:21;;;;;;;15.73;8.63;;;;;;;;;;5079120;28;20544;-66
2022/12/03 09:16:54;;;;;;;15.43;8.47;;;;;;;;;;5079667;28;20428;-66
2022/12/03 09:19:23;;;;;;;17.27;9.60;;;;;;;;;;5077637;28;20959;-66
2022/12/03 09:21:52;;;;;;;16.33;8.70;;;;;;;;;;5079277;28;20445;-66
2022/12/03 09:24:20;;;;;;;15.53;9.20;;;;;;;;;;5079174;28;20488;-66
2022/12/03 09:26:48;;;;;;;18.07;10.20;;;;;;;;;;5079436;28;20436;-66
2022/12/03 09:29:16;;;;;;;21.03;11.17;;;;;;;;;;5076545;28;22591;-66
2022/12/03 09:31:44;;;;;;;16.53;9.43;;;;;;;;;;5073553;28;20447;-66
2022/12/03 09:34:12;;;;;;;17.53;9.87;;;;;;;;;;5079261;28;20474;-66
2022/12/03 09:36:40;;;;;;;17.73;8.80;;;;;;;;;;5079213;28;20515;-66
2022/12/03 09:39:10;;;;;;;16.87;9.73;;;;;;;;;;5079075;28;20524;-66
2022/12/03 09:41:38;;;;;;;16.83;8.57;;;;;;;;;;5079125;28;20441;-66
2022/12/03 09:44:06;;;;;;;14.63;9.27;;;;;;;;;;5077715;28;20482;-66
2022/12/03 09:46:42;;;;;;;16.87;9.33;;;;;;;;;;5078792;28;20440;-66
2022/12/03 09:49:12;;;;;;;15.37;8.70;;;;;;;;;;5078755;28;20512;-66
2022/12/03 09:51:43;;;;;;;20.10;10.03;;;;;;;;;;5078650;28;20440;-66
2022/12/03 09:54:17;;;;;;;19.70;10.17;;;;;;;;;;5078572;28;20832;-66
2022/12/03 09:56:45;;;;;;;23.03;11.57;;;;;;;;;;5078593;28;20526;-66
2022/12/03 09:59:13;;;;;;;19.87;9.63;;;;;;;;;;5077761;28;20452;-66
2022/12/03 10:01:41;;;;;;;22.97;10.43;;;;;;;;;;5078838;28;20468;-66
2022/12/03 10:04:09;;;;;;;20.57;11.60;;;;;;;;;;5071316;28;20549;-67
2022/12/03 10:06:38;;;;;;;18.30;10.67;;;;;;;;;;5065627;28;20440;-65
2022/12/03 10:09:16;;;;;;;19.53;10.27;;;;;;;;;;5078235;28;20875;-66
2022/12/03 10:11:44;;;;;;;17.77;10.27;;;;;;;;;;5078579;28;20444;-66
2022/12/03 10:14:14;;;;;;;17.67;10.00;;;;;;;;;;5077879;28;20495;-66
2022/12/03 10:16:42;;;;;;;18.30;9.63;;;;;;;;;;5077837;28;20483;-65
2022/12/03 10:19:16;;;;;;;20.47;10.53;;;;;;;;;;5078276;28;20467;-67
2022/12/03 10:21:44;;;;;;;22.20;11.40;;;;;;;;;;5078288;28;21016;-66
2022/12/03 10:24:19;;;;;;;20.27;11.00;;;;;;;;;;5078060;28;20452;-66
2022/12/03 10:26:48;;;;;;;21.27;10.97;;;;;;;;;;5078488;28;20440;-66
2022/12/03 10:29:18;;;;;;;17.87;9.87;;;;;;;;;;5078235;28;20455;-66
2022/12/03 10:31:46;;;;;;;20.27;10.37;;;;;;;;;;5077218;28;20502;-66
2022/12/03 10:34:23;;;;;;;16.60;10.10;;;;;;;;;;5078023;28;20984;-66
2022/12/03 10:37:08;;;;;;;19.47;9.87;;;;;;;;;;5077997;28;20846;-66
2022/12/03 10:42:48;;;;;;;20.33;11.13;;;;;;;;;;5124065;27;20528;-67
2022/12/03 10:45:18;;;;;;;21.63;9.63;;;;;;;;;;5074635;28;20487;-67
2022/12/03 10:48:01;;;;;;;23.47;10.63;;;;;;;;;;5074061;28;20456;-67
2022/12/03 10:50:28;;;;;;;21.27;10.80;;;;;;;;;;5073219;28;20460;-67
2022/12/03 10:52:57;;;;;;;22.40;10.70;;;;;;;;;;5074937;28;20437;-67
2022/12/03 10:55:25;;;;;;;16.60;10.37;;;;;;;;;;5074701;28;20489;-67
2022/12/03 10:57:54;;;;;;;17.20;9.60;;;;;;;;;;5074585;28;20456;-67
2022/12/03 11:00:22;;;;;;;19.70;10.03;;;;;;;;;;5074700;28;20459;-67
2022/12/03 11:02:50;;;;;;;16.03;10.07;;;;;;;;;;5073845;28;20458;-67
2022/12/03 11:05:26;;;;;;;17.53;9.43;;;;;;;;;;5074531;28;20473;-67
2022/12/03 11:07:54;;;;;;;18.27;9.50;;;;;;;;;;5075144;28;20502;-67
2022/12/03 11:10:22;;;;;;;16.30;9.83;;;;;;;;;;5074987;28;20633;-65
2022/12/03 11:13:08;;;;;;;17.10;9.23;;;;;;;;;;5073734;28;20680;-67
2022/12/03 11:15:45;;;;;;;18.70;9.40;;;;;;;;;;5073094;28;20211;-67
2022/12/03 11:18:34;;;;;;;16.37;9.37;;;;;;;;;;5074567;28;20213;-67
2022/12/03 11:21:04;;;;;;;19.60;9.57;;;;;;;;;;5074190;28;20476;-67
2022/12/03 11:23:50;;;;;;;18.57;9.27;;;;;;;;;;5074234;28;20222;-67
2022/12/03 11:26:19;;;;;;;18.80;9.37;;;;;;;;;;5062461;28;20507;-67
2022/12/03 11:28:54;;;;;;;15.87;8.93;;;;;;;;;;5073137;28;20207;-66
2022/12/03 11:31:40;;;;;;;18.57;9.77;;;;;;;;;;5074169;28;20658;-67
2022/12/03 11:34:28;;;;;;;13.60;8.53;;;;;;;;;;5074155;28;20226;-67
2022/12/03 11:37:15;;;;;;;17.23;10.00;;;;;;;;;;5073889;28;20256;-67
2022/12/03 11:40:02;;;;;;;16.67;9.40;;;;;;;;;;5073882;28;20237;-66
2022/12/03 11:42:37;;;;;;;15.07;8.90;;;;;;;;;;5073670;28;20226;-67
2022/12/03 11:45:20;;;;;;;15.07;8.30;;;;;;;;;;5072654;28;20511;-67
2022/12/03 11:48:03;;;;;;;20.67;9.30;;;;;;;;;;5072394;28;20456;-66
2022/12/03 11:50:32;;;;;;;18.50;8.80;;;;;;;;;;5073602;28;20441;-66
2022/12/03 11:53:11;;;;;;;18.07;9.07;;;;;;;;;;5064242;28;20452;-67
2022/12/03 11:55:43;;;;;;;17.20;9.00;;;;;;;;;;5060423;28;20445;-66
2022/12/03 11:58:14;;;;;;;15.57;9.17;;;;;;;;;;5060397;28;20451;-66
2022/12/03 12:00:47;;;;;;;14.67;8.17;;;;;;;;;;5059289;28;20457;-67
2022/12/03 12:03:22;;;;;;;18.40;9.67;;;;;;;;;;5060047;28;20929;-66
2022/12/03 12:06:01;;;;;;;16.50;8.87;;;;;;;;;;5054130;28;20449;-67
2022/12/03 12:08:29;;;;;;;18.00;9.20;;;;;;;;;;5060076;28;20480;-67
2022/12/03 12:10:57;;;;;;;21.87;11.37;;;;;;;;;;5059935;28;20475;-66
2022/12/03 12:13:25;;;;;;;25.30;11.90;;;;;;;;;;5059868;28;20539;-66
2022/12/03 12:15:54;;;;;;;24.63;13.17;;;;;;;;;;5058627;28;20554;-66
2022/12/03 12:18:41;;;;;;;19.47;9.97;;;;;;;;;;5058140;28;21028;-67
2022/12/03 12:21:27;;;;;;;19.43;9.37;;;;;;;;;;5059626;28;20564;-67
2022/12/03 12:23:55;;;;;;;16.70;9.27;;;;;;;;;;5059570;28;20465;-66
2022/12/03 12:26:23;;;;;;;15.00;9.30;;;;;;;;;;5059729;28;20445;-67
2022/12/03 12:28:51;;;;;;;18.20;9.03;;;;;;;;;;5059515;28;20966;-67
2022/12/03 12:31:19;;;;;;;14.87;8.50;;;;;;;;;;5059640;28;20872;-67
2022/12/03 12:33:49;;;;;;;19.00;10.17;;;;;;;;;;5058922;28;20473;-66
2022/12/03 12:36:17;;;;;;;17.63;10.33;;;;;;;;;;5059507;28;20524;-67
2022/12/03 12:38:45;;;;;;;18.60;10.17;;;;;;;;;;5059530;28;20473;-67
2022/12/03 12:41:12;;;;;;;16.83;9.40;;;;;;;;;;5059263;28;20485;-67
2022/12/03 12:43:40;;;;;;;20.87;11.33;;;;;;;;;;5059084;28;20975;-67
2022/12/03 12:46:12;;;;;;;18.67;9.87;;;;;;;;;;5059540;28;20537;-67
2022/12/03 12:49:02;;;;;;;18.43;9.57;;;;;;;;;;5058049;28;20453;-66
2022/12/03 12:51:30;;;;;;;16.43;11.13;;;;;;;;;;5059245;28;20491;-67
2022/12/03 12:53:58;;;;;;;19.50;11.10;;;;;;;;;;5059310;28;20493;-67
2022/12/03 12:56:26;;;;;;;16.87;10.13;;;;;;;;;;5059206;28;20445;-67
2022/12/03 12:58:56;;;;;;;19.20;9.80;;;;;;;;;;5059370;28;20445;-66
2022/12/03 13:01:25;;;;;;;13.53;9.47;;;;;;;;;;5055882;28;20485;-67
2022/12/03 13:03:53;;;;;;;17.47;10.30;;;;;;;;;;5057528;28;20481;-66
2022/12/03 13:06:24;;;;;;;16.27;9.03;;;;;;;;;;5058758;28;20481;-67
2022/12/03 13:08:52;;;;;;;16.27;9.37;;;;;;;;;;5058807;28;20806;-66
2022/12/03 13:11:28;;;;;;;21.37;11.07;;;;;;;;;;5058782;28;20438;-66
2022/12/03 13:13:56;;;;;;;19.83;11.00;;;;;;;;;;5058317;28;20457;-67
2022/12/03 13:16:26;;;;;;;23.83;12.23;;;;;;;;;;5058622;28;20441;-66
2022/12/03 13:18:55;;;;;;;25.27;12.23;;;;;;;;;;5058129;28;20485;-66
2022/12/03 13:21:28;;;;;;;22.07;12.20;;;;;;;;;;5048429;28;20479;-66
2022/12/03 13:23:56;;;;;;;24.77;13.00;;;;;;;;;;5058466;28;20493;-67
2022/12/03 13:26:26;;;;;;;26.20;13.23;;;;;;;;;;5058379;28;20812;-66
2022/12/03 13:29:07;;;;;;;23.23;12.53;;;;;;;;;;5057099;28;20457;-67
2022/12/03 13:31:37;;;;;;;24.30;13.00;;;;;;;;;;5058444;28;20461;-67
2022/12/03 13:34:14;;;;;;;21.73;11.80;;;;;;;;;;5058296;28;20605;-67
2022/12/03 13:36:44;;;;;;;24.30;12.27;;;;;;;;;;5058580;28;20473;-66
2022/12/03 13:39:16;;;;;;;21.10;11.30;;;;;;;;;;5058514;28;20484;-67
2022/12/03 13:44:30;;;;;;;21.60;11.53;;;;;;;;;;5057881;28;20473;-67
2022/12/03 13:47:00;;;;;;;17.50;10.97;;;;;;;;;;5057459;28;20825;-67
2022/12/03 13:49:28;;;;;;;20.93;11.13;;;;;;;;;;5058418;28;20620;-67
2022/12/03 13:51:58;;;;;;;20.63;11.87;;;;;;;;;;5058233;28;20448;-67
2022/12/03 13:54:27;;;;;;;23.73;11.67;;;;;;;;;;5058271;28;20552;-67
2022/12/03 13:56:55;;;;;;;25.63;11.20;;;;;;;;;;5057830;28;20340;-67
2022/12/03 13:59:23;;;;;;;21.67;11.53;;;;;;;;;;5057306;28;20532;-66
2022/12/03 14:01:53;;;;;;;19.13;11.97;;;;;;;;;;5057875;28;20800;-67
2022/12/03 14:04:21;;;;;;;26.43;12.30;;;;;;;;;;5057874;28;20477;-66
2022/12/03 14:06:49;;;;;;;19.87;11.67;;;;;;;;;;5058205;28;20456;-66
2022/12/03 14:09:18;;;;;;;23.53;12.27;;;;;;;;;;5057751;28;20479;-66
2022/12/03 14:14:31;;;;;;;21.33;11.43;;;;;;;;;;5057573;28;20487;-66
2022/12/03 14:16:59;;;;;;;20.13;11.07;;;;;;;;;;5056577;28;20984;-67
2022/12/03 14:19:27;;;;;;;20.03;11.47;;;;;;;;;;5057770;28;20488;-66
2022/12/03 14:21:56;;;;;;;18.30;11.13;;;;;;;;;;5057745;28;20445;-66
2022/12/03 14:24:25;;;;;;;21.27;11.37;;;;;;;;;;5057793;28;20501;-66
2022/12/03 14:26:53;;;;;;;18.23;10.63;;;;;;;;;;5057486;28;20446;-67
2022/12/03 14:29:21;;;;;;;20.97;11.50;;;;;;;;;;5057459;28;20460;-66
2022/12/03 14:31:49;;;;;;;24.67;11.87;;;;;;;;;;5056927;28;20560;-66
2022/12/03 14:34:17;;;;;;;18.07;11.23;;;;;;;;;;5057441;28;20473;-66
2022/12/03 14:36:45;;;;;;;21.83;11.77;;;;;;;;;;5057636;28;20445;-67
2022/12/03 14:39:13;;;;;;;19.57;10.53;;;;;;;;;;5057809;28;20449;-67
2022/12/03 14:44:28;;;;;;;16.83;9.90;;;;;;;;;;5057196;28;20548;-66
2022/12/03 14:46:56;;;;;;;21.77;12.60;;;;;;;;;;5057072;28;20937;-67
2022/12/03 14:49:24;;;;;;;19.80;10.47;;;;;;;;;;5056539;28;20822;-67
2022/12/03 14:51:53;;;;;;;26.07;12.83;;;;;;;;;;5057585;28;20453;-67
2022/12/03 14:54:21;;;;;;;23.40;12.57;;;;;;;;;;5055663;28;20517;-67
2022/12/03 14:56:50;;;;;;;29.07;13.40;;;;;;;;;;5056234;28;20596;-66
2022/12/03 14:59:18;;;;;;;24.20;12.37;;;;;;;;;;5057341;28;20480;-67
2022/12/03 15:01:54;;;;;;;21.17;11.57;;;;;;;;;;5057560;28;20245;-67
2022/12/03 15:04:22;;;;;;;22.00;11.80;;;;;;;;;;5055904;28;20227;-67
2022/12/03 15:06:50;;;;;;;18.70;9.73;;;;;;;;;;5057575;28;20274;-67
2022/12/03 15:09:18;;;;;;;18.87;11.27;;;;;;;;;;5057295;28;20476;-67
2022/12/03 15:11:46;;;;;;;18.67;10.80;;;;;;;;;;5056925;28;20836;-66
2022/12/03 15:14:15;;;;;;;20.70;11.73;;;;;;;;;;5053721;28;20501;-67
2022/12/03 15:16:43;;;;;;;22.03;11.80;;;;;;;;;;5053828;28;20438;-67